sensor_id;sensor_type;location;lat;lon;timestamp;temperature;humidity
50955;DHT22;36966;48.064;-0.792;2023-04-25T00:00:39;18.70;56.40
50955;DHT22;36966;48.064;-0.792;2023-04-25T00:02:59;18.70;56.30
50955;DHT22;36966;48.064;-0.792;2023-04-25T00:05:18;18.70;56.30
50955;DHT22;36966;48.064;-0.792;2023-04-25T00:07:38;18.70;56.30
50955;DHT22;36966;48.064;-0.792;2023-04-25T00:12:55;18.70;56.10
50955;DHT22;36966;48.064;-0.792;2023-04-25T00:15:14;18.70;56.00
50955;DHT22;36966;48.064;-0.792;2023-04-25T00:17:36;18.70;56.00
50955;DHT22;36966;48.064;-0.792;2023-04-25T00:19:57;18.60;55.90
50955;DHT22;36966;48.064;-0.792;2023-04-25T00:22:17;18.60;55.80
50955;DHT22;36966;48.064;-0.792;2023-04-25T00:24:45;18.70;55.90
50955;DHT22;36966;48.064;-0.792;2023-04-25T00:27:04;18.60;56.00
50955;DHT22;36966;48.064;-0.792;2023-04-25T00:29:24;18.60;55.70
50955;DHT22;36966;48.064;-0.792;2023-04-25T00:31:43;18.60;55.70
50955;DHT22;36966;48.064;-0.792;2023-04-25T00:34:02;18.60;55.70
50955;DHT22;36966;48.064;-0.792;2023-04-25T00:36:22;18.60;55.70
50955;DHT22;36966;48.064;-0.792;2023-04-25T00:38:41;18.60;55.50
50955;DHT22;36966;48.064;-0.792;2023-04-25T00:41:00;18.60;55.60
50955;DHT22;36966;48.064;-0.792;2023-04-25T00:43:19;18.60;55.40
50955;DHT22;36966;48.064;-0.792;2023-04-25T00:45:39;18.60;55.50
50955;DHT22;36966;48.064;-0.792;2023-04-25T00:47:58;18.60;55.30
50955;DHT22;36966;48.064;-0.792;2023-04-25T00:50:18;18.60;55.50
50955;DHT22;36966;48.064;-0.792;2023-04-25T00:52:37;18.60;55.40
50955;DHT22;36966;48.064;-0.792;2023-04-25T00:54:59;18.60;55.30
50955;DHT22;36966;48.064;-0.792;2023-04-25T00:57:18;18.50;55.20
50955;DHT22;36966;48.064;-0.792;2023-04-25T00:59:37;18.50;55.20
50955;DHT22;36966;48.064;-0.792;2023-04-25T01:01:57;18.60;55.20
50955;DHT22;36966;48.064;-0.792;2023-04-25T01:04:17;18.50;55.10
50955;DHT22;36966;48.064;-0.792;2023-04-25T01:06:36;18.50;55.00
50955;DHT22;36966;48.064;-0.792;2023-04-25T01:08:56;18.50;55.00
50955;DHT22;36966;48.064;-0.792;2023-04-25T01:11:15;18.50;55.00
50955;DHT22;36966;48.064;-0.792;2023-04-25T01:13:35;18.50;54.90
50955;DHT22;36966;48.064;-0.792;2023-04-25T01:16:04;18.50;54.80
50955;DHT22;36966;48.064;-0.792;2023-04-25T01:18:26;18.50;54.80
50955;DHT22;36966;48.064;-0.792;2023-04-25T01:20:46;18.50;54.80
50955;DHT22;36966;48.064;-0.792;2023-04-25T01:23:05;18.50;54.70
50955;DHT22;36966;48.064;-0.792;2023-04-25T01:25:25;18.50;54.70
50955;DHT22;36966;48.064;-0.792;2023-04-25T01:27:44;18.50;54.60
50955;DHT22;36966;48.064;-0.792;2023-04-25T01:30:07;18.50;54.60
50955;DHT22;36966;48.064;-0.792;2023-04-25T01:32:26;18.50;54.60
50955;DHT22;36966;48.064;-0.792;2023-04-25T01:34:46;18.50;54.50
50955;DHT22;36966;48.064;-0.792;2023-04-25T01:37:08;18.50;54.50
50955;DHT22;36966;48.064;-0.792;2023-04-25T01:39:27;18.40;54.50
50955;DHT22;36966;48.064;-0.792;2023-04-25T01:41:47;18.50;54.40
50955;DHT22;36966;48.064;-0.792;2023-04-25T01:44:07;18.40;54.40
50955;DHT22;36966;48.064;-0.792;2023-04-25T01:46:26;18.40;54.40
50955;DHT22;36966;48.064;-0.792;2023-04-25T01:48:46;18.40;54.30
50955;DHT22;36966;48.064;-0.792;2023-04-25T01:51:06;18.40;54.30
50955;DHT22;36966;48.064;-0.792;2023-04-25T01:53:25;18.40;54.30
50955;DHT22;36966;48.064;-0.792;2023-04-25T01:55:45;18.40;54.30
50955;DHT22;36966;48.064;-0.792;2023-04-25T01:58:04;18.40;54.30
50955;DHT22;36966;48.064;-0.792;2023-04-25T02:00:28;18.40;54.20
50955;DHT22;36966;48.064;-0.792;2023-04-25T02:02:47;18.40;54.20
50955;DHT22;36966;48.064;-0.792;2023-04-25T02:05:07;18.30;54.20
50955;DHT22;36966;48.064;-0.792;2023-04-25T02:07:26;18.40;54.10
50955;DHT22;36966;48.064;-0.792;2023-04-25T02:09:45;18.40;54.10
50955;DHT22;36966;48.064;-0.792;2023-04-25T02:12:05;18.40;54.00
50955;DHT22;36966;48.064;-0.792;2023-04-25T02:14:24;18.40;54.00
50955;DHT22;36966;48.064;-0.792;2023-04-25T02:16:43;18.30;54.00
50955;DHT22;36966;48.064;-0.792;2023-04-25T02:19:02;18.30;54.00
50955;DHT22;36966;48.064;-0.792;2023-04-25T02:21:22;18.30;53.90
50955;DHT22;36966;48.064;-0.792;2023-04-25T02:23:42;18.30;54.00
50955;DHT22;36966;48.064;-0.792;2023-04-25T02:26:01;18.30;53.90
50955;DHT22;36966;48.064;-0.792;2023-04-25T02:28:22;18.30;53.90
50955;DHT22;36966;48.064;-0.792;2023-04-25T02:30:42;18.30;53.90
50955;DHT22;36966;48.064;-0.792;2023-04-25T02:33:01;18.30;53.90
50955;DHT22;36966;48.064;-0.792;2023-04-25T02:35:20;18.30;53.80
50955;DHT22;36966;48.064;-0.792;2023-04-25T02:37:40;18.30;53.80
50955;DHT22;36966;48.064;-0.792;2023-04-25T02:39:59;18.30;53.80
50955;DHT22;36966;48.064;-0.792;2023-04-25T02:42:22;18.30;53.80
50955;DHT22;36966;48.064;-0.792;2023-04-25T02:44:42;18.30;53.70
50955;DHT22;36966;48.064;-0.792;2023-04-25T02:47:01;18.30;53.70
50955;DHT22;36966;48.064;-0.792;2023-04-25T02:49:23;18.30;53.60
50955;DHT22;36966;48.064;-0.792;2023-04-25T02:51:42;18.30;53.60
50955;DHT22;36966;48.064;-0.792;2023-04-25T02:54:01;18.20;53.60
50955;DHT22;36966;48.064;-0.792;2023-04-25T02:56:20;18.30;53.60
50955;DHT22;36966;48.064;-0.792;2023-04-25T02:58:40;18.20;53.60
50955;DHT22;36966;48.064;-0.792;2023-04-25T03:00:59;18.20;53.50
50955;DHT22;36966;48.064;-0.792;2023-04-25T03:03:19;18.20;53.50
50955;DHT22;36966;48.064;-0.792;2023-04-25T03:05:40;18.20;53.40
50955;DHT22;36966;48.064;-0.792;2023-04-25T03:07:59;18.20;53.40
50955;DHT22;36966;48.064;-0.792;2023-04-25T03:10:26;18.20;53.40
50955;DHT22;36966;48.064;-0.792;2023-04-25T03:12:46;18.20;53.30
50955;DHT22;36966;48.064;-0.792;2023-04-25T03:15:05;18.20;53.30
50955;DHT22;36966;48.064;-0.792;2023-04-25T03:17:24;18.20;53.30
50955;DHT22;36966;48.064;-0.792;2023-04-25T03:19:44;18.20;53.20
50955;DHT22;36966;48.064;-0.792;2023-04-25T03:22:03;18.20;53.20
50955;DHT22;36966;48.064;-0.792;2023-04-25T03:24:22;18.20;53.20
50955;DHT22;36966;48.064;-0.792;2023-04-25T03:26:42;18.20;53.10
50955;DHT22;36966;48.064;-0.792;2023-04-25T03:29:01;18.20;53.20
50955;DHT22;36966;48.064;-0.792;2023-04-25T03:31:21;18.20;53.10
50955;DHT22;36966;48.064;-0.792;2023-04-25T03:33:43;18.20;53.10
50955;DHT22;36966;48.064;-0.792;2023-04-25T03:36:02;18.20;53.10
50955;DHT22;36966;48.064;-0.792;2023-04-25T03:38:22;18.20;53.10
50955;DHT22;36966;48.064;-0.792;2023-04-25T03:40:42;18.20;53.10
50955;DHT22;36966;48.064;-0.792;2023-04-25T03:43:01;18.20;53.00
50955;DHT22;36966;48.064;-0.792;2023-04-25T03:45:20;18.20;53.00
50955;DHT22;36966;48.064;-0.792;2023-04-25T03:47:39;18.20;53.00
50955;DHT22;36966;48.064;-0.792;2023-04-25T03:49:59;18.20;53.00
50955;DHT22;36966;48.064;-0.792;2023-04-25T03:52:20;18.10;53.20
50955;DHT22;36966;48.064;-0.792;2023-04-25T03:54:40;18.20;53.10
50955;DHT22;36966;48.064;-0.792;2023-04-25T03:57:04;18.20;53.00
50955;DHT22;36966;48.064;-0.792;2023-04-25T03:59:24;18.10;53.00
50955;DHT22;36966;48.064;-0.792;2023-04-25T04:01:47;18.10;52.90
50955;DHT22;36966;48.064;-0.792;2023-04-25T04:04:08;18.10;52.80
50955;DHT22;36966;48.064;-0.792;2023-04-25T04:06:29;18.10;52.80
50955;DHT22;36966;48.064;-0.792;2023-04-25T04:08:48;18.10;52.80
50955;DHT22;36966;48.064;-0.792;2023-04-25T04:11:07;18.10;52.80
50955;DHT22;36966;48.064;-0.792;2023-04-25T04:13:30;18.10;52.80
50955;DHT22;36966;48.064;-0.792;2023-04-25T04:15:49;18.10;52.70
50955;DHT22;36966;48.064;-0.792;2023-04-25T04:18:09;18.00;52.70
50955;DHT22;36966;48.064;-0.792;2023-04-25T04:20:29;18.00;52.70
50955;DHT22;36966;48.064;-0.792;2023-04-25T04:22:52;18.10;52.60
50955;DHT22;36966;48.064;-0.792;2023-04-25T04:25:11;18.00;52.60
50955;DHT22;36966;48.064;-0.792;2023-04-25T04:27:30;18.10;52.60
50955;DHT22;36966;48.064;-0.792;2023-04-25T04:29:49;18.00;52.60
50955;DHT22;36966;48.064;-0.792;2023-04-25T04:32:10;18.00;52.50
50955;DHT22;36966;48.064;-0.792;2023-04-25T04:34:30;18.00;52.50
50955;DHT22;36966;48.064;-0.792;2023-04-25T04:36:50;18.00;52.50
50955;DHT22;36966;48.064;-0.792;2023-04-25T04:39:09;18.00;52.50
50955;DHT22;36966;48.064;-0.792;2023-04-25T04:41:29;18.00;52.50
50955;DHT22;36966;48.064;-0.792;2023-04-25T04:43:49;18.00;52.40
50955;DHT22;36966;48.064;-0.792;2023-04-25T04:46:08;18.00;52.40
50955;DHT22;36966;48.064;-0.792;2023-04-25T04:48:29;18.00;52.40
50955;DHT22;36966;48.064;-0.792;2023-04-25T04:50:51;18.00;52.40
50955;DHT22;36966;48.064;-0.792;2023-04-25T04:53:10;18.00;52.30
50955;DHT22;36966;48.064;-0.792;2023-04-25T04:55:30;18.00;52.40
50955;DHT22;36966;48.064;-0.792;2023-04-25T04:57:50;18.00;52.30
50955;DHT22;36966;48.064;-0.792;2023-04-25T05:00:10;18.00;52.30
50955;DHT22;36966;48.064;-0.792;2023-04-25T05:02:30;18.00;52.30
50955;DHT22;36966;48.064;-0.792;2023-04-25T05:04:49;18.00;52.30
50955;DHT22;36966;48.064;-0.792;2023-04-25T05:07:09;18.00;52.30
50955;DHT22;36966;48.064;-0.792;2023-04-25T05:09:29;18.00;52.20
50955;DHT22;36966;48.064;-0.792;2023-04-25T05:11:48;18.00;52.20
50955;DHT22;36966;48.064;-0.792;2023-04-25T05:14:08;17.90;52.20
50955;DHT22;36966;48.064;-0.792;2023-04-25T05:16:27;18.00;52.20
50955;DHT22;36966;48.064;-0.792;2023-04-25T05:18:46;18.00;52.20
50955;DHT22;36966;48.064;-0.792;2023-04-25T05:21:06;17.90;52.20
50955;DHT22;36966;48.064;-0.792;2023-04-25T05:23:28;17.90;52.20
50955;DHT22;36966;48.064;-0.792;2023-04-25T05:25:49;18.00;52.10
50955;DHT22;36966;48.064;-0.792;2023-04-25T05:28:08;18.00;52.10
50955;DHT22;36966;48.064;-0.792;2023-04-25T05:30:28;18.00;52.00
50955;DHT22;36966;48.064;-0.792;2023-04-25T05:32:48;18.00;52.00
50955;DHT22;36966;48.064;-0.792;2023-04-25T05:35:07;18.00;52.00
50955;DHT22;36966;48.064;-0.792;2023-04-25T05:37:27;18.00;52.00
50955;DHT22;36966;48.064;-0.792;2023-04-25T05:39:46;18.00;52.00
50955;DHT22;36966;48.064;-0.792;2023-04-25T05:42:08;18.00;51.90
50955;DHT22;36966;48.064;-0.792;2023-04-25T05:44:30;18.00;52.00
50955;DHT22;36966;48.064;-0.792;2023-04-25T05:46:52;17.90;52.00
50955;DHT22;36966;48.064;-0.792;2023-04-25T05:49:12;18.00;51.90
50955;DHT22;36966;48.064;-0.792;2023-04-25T05:51:31;18.00;52.00
50955;DHT22;36966;48.064;-0.792;2023-04-25T05:53:51;18.00;52.00
50955;DHT22;36966;48.064;-0.792;2023-04-25T05:56:10;17.90;52.00
50955;DHT22;36966;48.064;-0.792;2023-04-25T05:58:29;17.90;52.00
50955;DHT22;36966;48.064;-0.792;2023-04-25T06:00:49;17.90;52.00
50955;DHT22;36966;48.064;-0.792;2023-04-25T06:03:11;17.90;52.00
50955;DHT22;36966;48.064;-0.792;2023-04-25T06:05:33;18.00;52.00
50955;DHT22;36966;48.064;-0.792;2023-04-25T06:07:52;18.00;52.00
50955;DHT22;36966;48.064;-0.792;2023-04-25T06:10:12;18.00;52.00
50955;DHT22;36966;48.064;-0.792;2023-04-25T06:12:31;18.00;52.00
50955;DHT22;36966;48.064;-0.792;2023-04-25T06:14:51;18.00;52.00
50955;DHT22;36966;48.064;-0.792;2023-04-25T06:17:10;18.00;51.90
50955;DHT22;36966;48.064;-0.792;2023-04-25T06:19:35;17.90;52.00
50955;DHT22;36966;48.064;-0.792;2023-04-25T06:21:55;18.00;52.00
50955;DHT22;36966;48.064;-0.792;2023-04-25T06:24:14;17.90;51.90
50955;DHT22;36966;48.064;-0.792;2023-04-25T06:26:33;18.00;52.00
50955;DHT22;36966;48.064;-0.792;2023-04-25T06:28:53;18.00;52.00
50955;DHT22;36966;48.064;-0.792;2023-04-25T06:31:12;17.90;52.00
50955;DHT22;36966;48.064;-0.792;2023-04-25T06:33:31;17.90;52.00
50955;DHT22;36966;48.064;-0.792;2023-04-25T06:35:58;17.90;52.00
50955;DHT22;36966;48.064;-0.792;2023-04-25T06:38:17;17.90;52.00
50955;DHT22;36966;48.064;-0.792;2023-04-25T06:40:36;17.90;51.90
50955;DHT22;36966;48.064;-0.792;2023-04-25T06:42:59;18.00;52.00
50955;DHT22;36966;48.064;-0.792;2023-04-25T06:45:18;17.90;52.00
50955;DHT22;36966;48.064;-0.792;2023-04-25T06:47:37;17.90;52.00
50955;DHT22;36966;48.064;-0.792;2023-04-25T06:49:56;17.90;52.00
50955;DHT22;36966;48.064;-0.792;2023-04-25T06:52:15;17.90;52.00
50955;DHT22;36966;48.064;-0.792;2023-04-25T06:54:37;17.90;52.00
50955;DHT22;36966;48.064;-0.792;2023-04-25T06:56:56;17.90;52.10
50955;DHT22;36966;48.064;-0.792;2023-04-25T06:59:15;17.90;52.10
50955;DHT22;36966;48.064;-0.792;2023-04-25T07:01:35;17.90;52.10
50955;DHT22;36966;48.064;-0.792;2023-04-25T07:03:54;18.00;52.10
50955;DHT22;36966;48.064;-0.792;2023-04-25T07:06:13;18.00;52.10
50955;DHT22;36966;48.064;-0.792;2023-04-25T07:08:33;18.00;52.10
50955;DHT22;36966;48.064;-0.792;2023-04-25T07:10:52;17.90;52.10
50955;DHT22;36966;48.064;-0.792;2023-04-25T07:13:11;17.90;52.10
50955;DHT22;36966;48.064;-0.792;2023-04-25T07:15:31;17.90;52.10
50955;DHT22;36966;48.064;-0.792;2023-04-25T07:17:50;17.90;52.10
50955;DHT22;36966;48.064;-0.792;2023-04-25T07:20:10;18.00;52.20
50955;DHT22;36966;48.064;-0.792;2023-04-25T07:22:30;17.90;52.10
50955;DHT22;36966;48.064;-0.792;2023-04-25T07:24:49;18.00;52.10
50955;DHT22;36966;48.064;-0.792;2023-04-25T07:27:08;18.00;52.20
50955;DHT22;36966;48.064;-0.792;2023-04-25T07:29:28;18.00;52.20
50955;DHT22;36966;48.064;-0.792;2023-04-25T07:31:49;17.90;52.10
50955;DHT22;36966;48.064;-0.792;2023-04-25T07:34:08;18.00;52.10
50955;DHT22;36966;48.064;-0.792;2023-04-25T07:36:28;18.00;52.20
50955;DHT22;36966;48.064;-0.792;2023-04-25T07:38:47;18.00;52.20
50955;DHT22;36966;48.064;-0.792;2023-04-25T07:41:07;18.00;52.20
50955;DHT22;36966;48.064;-0.792;2023-04-25T07:43:26;18.00;52.20
50955;DHT22;36966;48.064;-0.792;2023-04-25T07:45:46;18.00;52.20
50955;DHT22;36966;48.064;-0.792;2023-04-25T07:48:05;18.00;52.20
50955;DHT22;36966;48.064;-0.792;2023-04-25T07:50:24;18.00;52.20
50955;DHT22;36966;48.064;-0.792;2023-04-25T07:52:43;18.00;52.30
50955;DHT22;36966;48.064;-0.792;2023-04-25T07:55:03;18.00;52.30
50955;DHT22;36966;48.064;-0.792;2023-04-25T07:57:23;18.10;52.30
50955;DHT22;36966;48.064;-0.792;2023-04-25T07:59:43;18.00;52.30
50955;DHT22;36966;48.064;-0.792;2023-04-25T08:02:02;18.10;52.30
50955;DHT22;36966;48.064;-0.792;2023-04-25T08:04:21;18.00;52.30
50955;DHT22;36966;48.064;-0.792;2023-04-25T08:06:41;18.10;52.30
50955;DHT22;36966;48.064;-0.792;2023-04-25T08:09:01;18.10;52.30
50955;DHT22;36966;48.064;-0.792;2023-04-25T08:11:21;18.10;52.30
50955;DHT22;36966;48.064;-0.792;2023-04-25T08:13:40;18.10;52.30
50955;DHT22;36966;48.064;-0.792;2023-04-25T08:15:59;18.10;52.30
50955;DHT22;36966;48.064;-0.792;2023-04-25T08:18:19;18.10;52.30
50955;DHT22;36966;48.064;-0.792;2023-04-25T08:20:39;18.10;52.30
50955;DHT22;36966;48.064;-0.792;2023-04-25T08:22:59;18.10;52.30
50955;DHT22;36966;48.064;-0.792;2023-04-25T08:25:18;18.10;52.30
50955;DHT22;36966;48.064;-0.792;2023-04-25T08:27:37;18.10;52.20
50955;DHT22;36966;48.064;-0.792;2023-04-25T08:29:57;18.10;52.20
50955;DHT22;36966;48.064;-0.792;2023-04-25T08:32:18;18.20;52.30
50955;DHT22;36966;48.064;-0.792;2023-04-25T08:34:37;18.20;52.20
50955;DHT22;36966;48.064;-0.792;2023-04-25T08:36:58;18.20;52.20
50955;DHT22;36966;48.064;-0.792;2023-04-25T08:39:17;18.20;52.10
50955;DHT22;36966;48.064;-0.792;2023-04-25T08:41:37;18.20;52.10
50955;DHT22;36966;48.064;-0.792;2023-04-25T08:43:56;18.20;52.10
50955;DHT22;36966;48.064;-0.792;2023-04-25T08:46:19;18.20;52.00
50955;DHT22;36966;48.064;-0.792;2023-04-25T08:48:39;18.20;52.00
50955;DHT22;36966;48.064;-0.792;2023-04-25T08:50:59;18.20;51.90
50955;DHT22;36966;48.064;-0.792;2023-04-25T08:53:27;18.20;51.90
50955;DHT22;36966;48.064;-0.792;2023-04-25T08:55:46;18.20;51.90
50955;DHT22;36966;48.064;-0.792;2023-04-25T08:58:06;18.20;51.80
50955;DHT22;36966;48.064;-0.792;2023-04-25T09:00:25;18.20;51.80
50955;DHT22;36966;48.064;-0.792;2023-04-25T09:02:45;18.20;51.80
50955;DHT22;36966;48.064;-0.792;2023-04-25T09:05:08;18.20;51.80
50955;DHT22;36966;48.064;-0.792;2023-04-25T09:07:28;18.20;51.80
50955;DHT22;36966;48.064;-0.792;2023-04-25T09:09:48;18.20;51.80
50955;DHT22;36966;48.064;-0.792;2023-04-25T09:12:09;18.20;51.80
50955;DHT22;36966;48.064;-0.792;2023-04-25T09:14:29;18.20;51.80
50955;DHT22;36966;48.064;-0.792;2023-04-25T09:19:25;18.20;51.70
50955;DHT22;36966;48.064;-0.792;2023-04-25T09:21:48;18.20;51.70
50955;DHT22;36966;48.064;-0.792;2023-04-25T09:24:07;18.20;51.70
50955;DHT22;36966;48.064;-0.792;2023-04-25T09:26:29;18.20;51.60
50955;DHT22;36966;48.064;-0.792;2023-04-25T09:29:11;18.20;51.60
50955;DHT22;36966;48.064;-0.792;2023-04-25T09:31:31;18.20;51.60
50955;DHT22;36966;48.064;-0.792;2023-04-25T09:33:59;18.20;51.50
50955;DHT22;36966;48.064;-0.792;2023-04-25T09:36:19;18.20;51.50
50955;DHT22;36966;48.064;-0.792;2023-04-25T09:38:45;18.20;51.50
50955;DHT22;36966;48.064;-0.792;2023-04-25T09:43:35;18.20;51.40
50955;DHT22;36966;48.064;-0.792;2023-04-25T09:45:55;18.20;51.40
50955;DHT22;36966;48.064;-0.792;2023-04-25T09:48:21;18.20;51.40
50955;DHT22;36966;48.064;-0.792;2023-04-25T09:50:40;18.20;51.40
50955;DHT22;36966;48.064;-0.792;2023-04-25T09:53:03;18.20;51.40
50955;DHT22;36966;48.064;-0.792;2023-04-25T09:55:24;18.20;51.40
50955;DHT22;36966;48.064;-0.792;2023-04-25T09:57:44;18.20;51.30
50955;DHT22;36966;48.064;-0.792;2023-04-25T10:00:05;18.20;51.30
50955;DHT22;36966;48.064;-0.792;2023-04-25T10:02:28;18.20;51.30
50955;DHT22;36966;48.064;-0.792;2023-04-25T10:04:48;18.20;51.30
50955;DHT22;36966;48.064;-0.792;2023-04-25T10:07:08;18.20;51.10
50955;DHT22;36966;48.064;-0.792;2023-04-25T10:09:28;18.20;50.90
50955;DHT22;36966;48.064;-0.792;2023-04-25T10:11:50;18.30;50.90
50955;DHT22;36966;48.064;-0.792;2023-04-25T10:14:10;18.30;50.80
50955;DHT22;36966;48.064;-0.792;2023-04-25T10:16:30;18.30;50.70
50955;DHT22;36966;48.064;-0.792;2023-04-25T10:18:49;18.40;50.60
50955;DHT22;36966;48.064;-0.792;2023-04-25T10:21:09;18.40;50.60
50955;DHT22;36966;48.064;-0.792;2023-04-25T10:23:29;18.40;50.50
50955;DHT22;36966;48.064;-0.792;2023-04-25T10:25:52;18.40;50.40
50955;DHT22;36966;48.064;-0.792;2023-04-25T10:28:12;18.40;50.20
50955;DHT22;36966;48.064;-0.792;2023-04-25T10:30:31;18.40;50.30
50955;DHT22;36966;48.064;-0.792;2023-04-25T10:32:50;18.40;50.40
50955;DHT22;36966;48.064;-0.792;2023-04-25T10:35:14;18.40;50.30
50955;DHT22;36966;48.064;-0.792;2023-04-25T10:37:34;18.40;50.20
50955;DHT22;36966;48.064;-0.792;2023-04-25T10:39:53;18.40;50.30
50955;DHT22;36966;48.064;-0.792;2023-04-25T10:42:13;18.40;50.30
50955;DHT22;36966;48.064;-0.792;2023-04-25T10:44:32;18.40;50.50
50955;DHT22;36966;48.064;-0.792;2023-04-25T10:46:55;18.40;50.40
50955;DHT22;36966;48.064;-0.792;2023-04-25T10:49:33;18.40;50.40
50955;DHT22;36966;48.064;-0.792;2023-04-25T10:51:57;18.40;50.30
50955;DHT22;36966;48.064;-0.792;2023-04-25T10:54:29;18.40;50.10
50955;DHT22;36966;48.064;-0.792;2023-04-25T10:56:49;18.40;50.10
50955;DHT22;36966;48.064;-0.792;2023-04-25T10:59:19;18.40;49.80
50955;DHT22;36966;48.064;-0.792;2023-04-25T11:01:39;18.50;49.90
50955;DHT22;36966;48.064;-0.792;2023-04-25T11:03:58;18.40;49.90
50955;DHT22;36966;48.064;-0.792;2023-04-25T11:08:48;18.50;49.80
50955;DHT22;36966;48.064;-0.792;2023-04-25T11:11:08;18.40;49.60
50955;DHT22;36966;48.064;-0.792;2023-04-25T11:13:30;18.50;49.80
50955;DHT22;36966;48.064;-0.792;2023-04-25T11:15:52;18.50;49.70
50955;DHT22;36966;48.064;-0.792;2023-04-25T11:18:17;18.50;49.50
50955;DHT22;36966;48.064;-0.792;2023-04-25T11:20:38;18.50;49.60
50955;DHT22;36966;48.064;-0.792;2023-04-25T11:22:58;18.50;49.60
50955;DHT22;36966;48.064;-0.792;2023-04-25T11:25:18;18.40;49.60
50955;DHT22;36966;48.064;-0.792;2023-04-25T11:27:52;18.40;49.70
50955;DHT22;36966;48.064;-0.792;2023-04-25T11:30:12;18.50;49.60
50955;DHT22;36966;48.064;-0.792;2023-04-25T11:32:33;18.50;49.50
50955;DHT22;36966;48.064;-0.792;2023-04-25T11:34:52;18.40;49.30
50955;DHT22;36966;48.064;-0.792;2023-04-25T11:37:11;18.40;49.60
50955;DHT22;36966;48.064;-0.792;2023-04-25T11:39:31;18.40;49.60
50955;DHT22;36966;48.064;-0.792;2023-04-25T11:41:50;18.40;49.50
50955;DHT22;36966;48.064;-0.792;2023-04-25T11:44:09;18.40;49.60
50955;DHT22;36966;48.064;-0.792;2023-04-25T11:46:29;18.40;49.60
50955;DHT22;36966;48.064;-0.792;2023-04-25T11:48:54;18.40;49.60
50955;DHT22;36966;48.064;-0.792;2023-04-25T11:51:17;18.40;49.50
50955;DHT22;36966;48.064;-0.792;2023-04-25T11:53:36;18.40;49.30
50955;DHT22;36966;48.064;-0.792;2023-04-25T11:56:02;18.40;49.30
50955;DHT22;36966;48.064;-0.792;2023-04-25T11:58:28;18.40;49.30
50955;DHT22;36966;48.064;-0.792;2023-04-25T12:00:47;18.40;49.00
50955;DHT22;36966;48.064;-0.792;2023-04-25T12:03:08;18.40;49.00
50955;DHT22;36966;48.064;-0.792;2023-04-25T12:05:29;18.40;49.00
50955;DHT22;36966;48.064;-0.792;2023-04-25T12:07:49;18.40;49.10
50955;DHT22;36966;48.064;-0.792;2023-04-25T12:10:10;18.40;49.00
50955;DHT22;36966;48.064;-0.792;2023-04-25T12:12:34;18.40;49.10
50955;DHT22;36966;48.064;-0.792;2023-04-25T12:14:54;18.40;49.10
50955;DHT22;36966;48.064;-0.792;2023-04-25T12:17:14;18.40;49.20
50955;DHT22;36966;48.064;-0.792;2023-04-25T12:19:34;18.40;49.20
50955;DHT22;36966;48.064;-0.792;2023-04-25T12:21:54;18.40;49.00
50955;DHT22;36966;48.064;-0.792;2023-04-25T12:24:17;18.40;49.20
50955;DHT22;36966;48.064;-0.792;2023-04-25T12:26:46;18.30;49.20
50955;DHT22;36966;48.064;-0.792;2023-04-25T12:29:14;18.30;49.20
50955;DHT22;36966;48.064;-0.792;2023-04-25T12:31:34;18.30;49.00
50955;DHT22;36966;48.064;-0.792;2023-04-25T12:33:53;18.30;49.10
50955;DHT22;36966;48.064;-0.792;2023-04-25T12:36:12;18.30;49.10
50955;DHT22;36966;48.064;-0.792;2023-04-25T12:38:35;18.30;48.90
50955;DHT22;36966;48.064;-0.792;2023-04-25T12:43:34;18.30;48.90
50955;DHT22;36966;48.064;-0.792;2023-04-25T12:45:54;18.30;48.80
50955;DHT22;36966;48.064;-0.792;2023-04-25T12:48:13;18.40;48.80
50955;DHT22;36966;48.064;-0.792;2023-04-25T12:50:33;18.30;48.70
50955;DHT22;36966;48.064;-0.792;2023-04-25T12:52:52;18.40;48.30
50955;DHT22;36966;48.064;-0.792;2023-04-25T12:55:11;18.40;48.10
50955;DHT22;36966;48.064;-0.792;2023-04-25T12:57:31;18.40;47.80
50955;DHT22;36966;48.064;-0.792;2023-04-25T12:59:50;18.50;47.90
50955;DHT22;36966;48.064;-0.792;2023-04-25T13:02:10;18.50;47.50
50955;DHT22;36966;48.064;-0.792;2023-04-25T13:04:30;18.50;47.60
50955;DHT22;36966;48.064;-0.792;2023-04-25T13:06:49;18.50;47.50
50955;DHT22;36966;48.064;-0.792;2023-04-25T13:09:09;18.50;47.40
50955;DHT22;36966;48.064;-0.792;2023-04-25T13:11:28;18.50;47.50
50955;DHT22;36966;48.064;-0.792;2023-04-25T13:13:47;18.50;47.50
50955;DHT22;36966;48.064;-0.792;2023-04-25T13:16:06;18.50;47.50
50955;DHT22;36966;48.064;-0.792;2023-04-25T13:18:26;18.50;47.40
50955;DHT22;36966;48.064;-0.792;2023-04-25T13:20:45;18.50;47.50
50955;DHT22;36966;48.064;-0.792;2023-04-25T13:23:05;18.50;47.50
50955;DHT22;36966;48.064;-0.792;2023-04-25T13:25:24;18.50;47.50
50955;DHT22;36966;48.064;-0.792;2023-04-25T13:27:43;18.50;47.50
50955;DHT22;36966;48.064;-0.792;2023-04-25T13:30:04;18.40;47.60
50955;DHT22;36966;48.064;-0.792;2023-04-25T13:32:26;18.40;47.70
50955;DHT22;36966;48.064;-0.792;2023-04-25T13:34:45;18.50;47.80
50955;DHT22;36966;48.064;-0.792;2023-04-25T13:37:05;18.40;47.90
50955;DHT22;36966;48.064;-0.792;2023-04-25T13:39:25;18.40;48.00
50955;DHT22;36966;48.064;-0.792;2023-04-25T13:41:44;18.50;47.80
50955;DHT22;36966;48.064;-0.792;2023-04-25T13:44:04;18.40;47.90
50955;DHT22;36966;48.064;-0.792;2023-04-25T13:46:23;18.40;48.00
50955;DHT22;36966;48.064;-0.792;2023-04-25T13:48:43;18.40;47.90
50955;DHT22;36966;48.064;-0.792;2023-04-25T13:51:05;18.50;47.70
50955;DHT22;36966;48.064;-0.792;2023-04-25T13:53:24;18.40;47.80
50955;DHT22;36966;48.064;-0.792;2023-04-25T13:55:43;18.40;47.80
50955;DHT22;36966;48.064;-0.792;2023-04-25T13:58:03;18.40;47.60
50955;DHT22;36966;48.064;-0.792;2023-04-25T14:00:31;18.40;47.60
50955;DHT22;36966;48.064;-0.792;2023-04-25T14:02:50;18.50;47.40
50955;DHT22;36966;48.064;-0.792;2023-04-25T14:05:10;18.50;47.60
50955;DHT22;36966;48.064;-0.792;2023-04-25T14:07:29;18.40;47.60
50955;DHT22;36966;48.064;-0.792;2023-04-25T14:09:49;18.40;47.40
50955;DHT22;36966;48.064;-0.792;2023-04-25T14:12:08;18.50;47.30
50955;DHT22;36966;48.064;-0.792;2023-04-25T14:14:27;18.50;47.30
50955;DHT22;36966;48.064;-0.792;2023-04-25T14:16:47;18.40;47.20
50955;DHT22;36966;48.064;-0.792;2023-04-25T14:19:07;18.50;47.30
50955;DHT22;36966;48.064;-0.792;2023-04-25T14:21:26;18.50;47.00
50955;DHT22;36966;48.064;-0.792;2023-04-25T14:23:46;18.50;47.10
50955;DHT22;36966;48.064;-0.792;2023-04-25T14:26:05;18.50;47.00
50955;DHT22;36966;48.064;-0.792;2023-04-25T14:28:25;18.50;47.20
50955;DHT22;36966;48.064;-0.792;2023-04-25T14:30:44;18.50;47.10
50955;DHT22;36966;48.064;-0.792;2023-04-25T14:33:03;18.50;46.80
50955;DHT22;36966;48.064;-0.792;2023-04-25T14:35:23;18.50;46.90
50955;DHT22;36966;48.064;-0.792;2023-04-25T14:37:42;18.50;46.70
50955;DHT22;36966;48.064;-0.792;2023-04-25T14:40:01;18.50;46.60
50955;DHT22;36966;48.064;-0.792;2023-04-25T14:42:22;18.50;46.70
50955;DHT22;36966;48.064;-0.792;2023-04-25T14:44:41;18.60;46.60